createdAt,value
2022-11-16T00:03:34.784Z,18.00
2022-11-16T00:08:37.015Z,16.77
2022-11-16T00:13:37.149Z,16.55
2022-11-16T00:18:37.713Z,15.88
2022-11-16T00:23:38.476Z,15.50
2022-11-16T00:28:37.537Z,16.63
2022-11-16T00:33:37.888Z,17.35
2022-11-16T00:38:36.706Z,17.77
2022-11-16T00:43:37.570Z,18.42
2022-11-16T00:48:38.157Z,16.10
2022-11-16T00:53:37.543Z,17.63
2022-11-16T00:58:36.837Z,16.38
2022-11-16T01:08:41.968Z,16.17
2022-11-16T01:13:40.895Z,17.40
2022-11-16T01:18:41.172Z,16.08
2022-11-16T01:23:39.981Z,18.08
2022-11-16T01:28:38.816Z,16.08
2022-11-16T01:33:40.017Z,18.30
2022-11-16T01:38:44.080Z,17.42
2022-11-16T01:43:53.435Z,16.48
2022-11-16T01:49:00.735Z,16.05
2022-11-16T01:54:02.833Z,17.48
2022-11-16T01:59:03.161Z,15.13
2022-11-16T02:04:04.681Z,17.10
2022-11-16T02:09:41.743Z,16.93
2022-11-16T02:14:57.704Z,17.38
2022-11-16T02:20:25.955Z,15.55
2022-11-16T02:25:36.472Z,16.95
2022-11-16T02:30:39.292Z,16.15
2022-11-16T02:35:42.680Z,15.93
2022-11-16T02:40:47.737Z,16.40
2022-11-16T02:45:57.449Z,16.20
2022-11-16T02:50:57.573Z,17.52
2022-11-16T02:55:59.871Z,16.48
2022-11-16T03:01:04.509Z,16.43
2022-11-16T03:06:07.580Z,16.73
2022-11-16T03:11:27.288Z,16.53
2022-11-16T03:16:34.262Z,15.75
2022-11-16T03:21:40.746Z,15.80
2022-11-16T03:26:47.896Z,19.52
2022-11-16T03:31:53.399Z,19.13
2022-11-16T03:36:56.197Z,18.15
2022-11-16T03:41:58.380Z,17.95
2022-11-16T03:46:58.796Z,19.45
2022-11-16T03:51:58.668Z,16.75
2022-11-16T03:56:57.521Z,17.20
2022-11-16T04:01:56.500Z,18.20
2022-11-16T04:07:14.249Z,18.42
2022-11-16T04:12:30.818Z,19.55
2022-11-16T04:17:48.135Z,20.00
2022-11-16T04:23:11.066Z,16.98
2022-11-16T04:28:16.646Z,16.05
2022-11-16T04:33:38.811Z,17.08
2022-11-16T04:38:38.972Z,18.02
2022-11-16T04:43:37.725Z,18.77
2022-11-16T04:48:36.894Z,18.25
2022-11-16T04:53:36.217Z,15.32
2022-11-16T04:58:54.839Z,14.27
2022-11-16T05:03:54.330Z,15.27
2022-11-16T05:08:53.115Z,15.38
2022-11-16T05:13:52.064Z,18.45
2022-11-16T05:19:06.805Z,19.02
2022-11-16T05:24:24.040Z,17.70
2022-11-16T05:29:22.855Z,20.55
2022-11-16T05:34:23.331Z,20.13
2022-11-16T05:39:25.542Z,21.92
2022-11-16T05:44:25.938Z,22.23
2022-11-16T05:49:26.391Z,18.50
2022-11-16T05:54:26.858Z,17.25
2022-11-16T05:59:27.870Z,15.93
2022-11-16T06:04:30.490Z,15.80
2022-11-16T06:09:29.406Z,18.02
2022-11-16T06:14:33.036Z,18.42
2022-11-16T06:19:33.198Z,23.05
2022-11-16T06:24:32.028Z,21.55
2022-11-16T06:29:30.974Z,21.80
2022-11-16T06:34:29.980Z,19.63
2022-11-16T06:39:31.558Z,18.00
2022-11-16T06:44:30.331Z,18.30
2022-11-16T06:49:33.369Z,18.40
2022-11-16T06:54:36.851Z,18.73
2022-11-16T06:59:35.827Z,17.50
2022-11-16T07:04:34.564Z,19.02
2022-11-16T07:09:37.332Z,20.98
2022-11-16T07:14:36.163Z,20.17
2022-11-16T07:19:36.996Z,22.50
2022-11-16T07:24:38.541Z,20.17
2022-11-16T07:29:37.600Z,21.98
2022-11-16T07:35:02.822Z,21.75
2022-11-16T07:40:04.766Z,19.85
2022-11-16T07:45:03.853Z,21.42
2022-11-16T07:55:09.414Z,21.48
2022-11-16T08:00:09.834Z,20.90
2022-11-16T08:05:14.549Z,24.90
2022-11-16T08:10:15.340Z,21.98
2022-11-16T08:15:14.432Z,21.10
2022-11-16T08:20:14.514Z,26.35
2022-11-16T08:25:15.380Z,22.77
2022-11-16T08:30:15.819Z,22.90
2022-11-16T08:35:16.648Z,21.42
2022-11-16T08:40:18.442Z,21.63
2022-11-16T08:45:18.724Z,22.48
2022-11-16T08:50:17.867Z,24.85
2022-11-16T08:55:18.946Z,22.88
2022-11-16T09:00:19.092Z,22.13
2022-11-16T09:05:18.066Z,26.50
2022-11-16T09:10:23.063Z,23.42
2022-11-16T09:15:21.806Z,24.92
2022-11-16T09:20:20.785Z,27.80
2022-11-16T09:25:21.174Z,25.17
2022-11-16T09:30:20.061Z,23.45
2022-11-16T09:35:20.869Z,21.20
2022-11-16T09:40:21.721Z,22.00
2022-11-16T09:45:26.125Z,23.23
2022-11-16T09:50:46.684Z,23.42
2022-11-16T09:55:52.172Z,24.02
2022-11-16T10:00:57.365Z,24.33
2022-11-16T10:06:03.980Z,22.95
2022-11-16T10:11:14.046Z,24.48
2022-11-16T10:16:20.228Z,26.52
2022-11-16T10:21:31.073Z,23.70
2022-11-16T10:26:36.076Z,25.60
2022-11-16T10:31:57.355Z,24.73
2022-11-16T10:37:03.478Z,24.48
2022-11-16T10:42:07.882Z,23.65
2022-11-16T10:47:16.344Z,24.02
2022-11-16T10:52:17.925Z,24.42
2022-11-16T10:57:18.199Z,27.13
2022-11-16T11:02:31.278Z,23.38
2022-11-16T11:07:32.839Z,25.60
2022-11-16T11:12:39.061Z,29.60
2022-11-16T11:17:39.267Z,27.40
2022-11-16T11:22:45.184Z,28.40
2022-11-16T11:27:45.504Z,25.00
2022-11-16T11:32:44.917Z,26.40
2022-11-16T11:37:43.956Z,29.45
2022-11-16T11:42:52.361Z,27.15
2022-11-16T11:47:58.812Z,28.00
2022-11-16T11:53:03.899Z,25.75
2022-11-16T11:58:04.918Z,28.42
2022-11-16T12:03:32.986Z,28.70
2022-11-16T12:08:48.804Z,25.85
2022-11-16T12:14:11.024Z,25.70
2022-11-16T12:19:46.922Z,30.63
2022-11-16T12:25:01.359Z,25.42
2022-11-16T12:30:08.661Z,72.45
2022-11-16T12:35:31.079Z,30.63
2022-11-16T12:40:39.237Z,28.50
2022-11-16T12:45:52.693Z,26.38
2022-11-16T12:50:56.565Z,25.23
2022-11-16T12:56:01.899Z,23.98
2022-11-16T13:01:12.198Z,26.45
2022-11-16T13:06:18.850Z,22.83
2022-11-16T13:11:25.063Z,23.58
2022-11-16T13:16:25.510Z,25.52
2022-11-16T13:21:41.358Z,24.38
2022-11-16T13:26:45.837Z,23.63
2022-11-16T13:31:54.898Z,26.73
2022-11-16T13:36:55.248Z,25.42
2022-11-16T13:42:08.673Z,24.40
2022-11-16T13:47:19.622Z,25.95
2022-11-16T13:52:28.599Z,27.02
2022-11-16T13:57:35.856Z,26.15
2022-11-16T14:02:36.480Z,27.23
2022-11-16T14:07:42.986Z,26.30
2022-11-16T14:12:53.374Z,24.60
2022-11-16T14:17:57.242Z,24.10
2022-11-16T14:23:12.525Z,22.90
2022-11-16T14:28:35.615Z,24.95
2022-11-16T14:38:38.868Z,26.00
2022-11-16T14:43:44.183Z,33.08
2022-11-16T14:48:47.362Z,27.45
2022-11-16T14:58:55.580Z,28.75
2022-11-16T15:04:02.492Z,32.25
2022-11-16T15:09:05.587Z,34.08
2022-11-16T15:14:04.531Z,39.65
2022-11-16T15:19:03.710Z,32.63
2022-11-16T15:29:27.149Z,44.70
2022-11-16T15:34:26.261Z,43.97
2022-11-16T15:39:35.628Z,39.70
2022-11-16T15:44:34.912Z,36.20
2022-11-16T15:49:36.574Z,37.95
2022-11-16T15:54:51.119Z,40.38
2022-11-16T15:59:52.203Z,47.17
2022-11-16T16:04:51.562Z,51.42
2022-11-16T16:10:23.564Z,61.38
2022-11-16T16:15:25.196Z,59.50
2022-11-16T16:20:26.618Z,65.93
2022-11-16T16:25:31.741Z,69.18
2022-11-16T16:30:31.742Z,77.93
2022-11-16T16:35:30.611Z,73.40
2022-11-16T16:40:30.989Z,92.22
2022-11-16T16:45:37.294Z,83.22
2022-11-16T16:50:36.318Z,59.40
2022-11-16T16:55:37.878Z,54.03
2022-11-16T17:00:36.931Z,59.65
2022-11-16T17:05:36.247Z,58.55
2022-11-16T17:10:38.920Z,77.05
2022-11-16T17:15:37.916Z,65.07
2022-11-16T17:20:37.590Z,65.80
2022-11-16T17:25:39.773Z,68.60
2022-11-16T17:30:38.579Z,64.20
2022-11-16T17:35:38.134Z,63.88
2022-11-16T17:40:37.235Z,70.20
2022-11-16T17:45:39.779Z,84.78
2022-11-16T17:50:41.035Z,71.05
2022-11-16T17:55:40.902Z,59.58
2022-11-16T18:00:41.050Z,60.95
2022-11-16T18:05:40.561Z,67.65
2022-11-16T18:10:41.755Z,61.22
2022-11-16T18:15:42.672Z,56.30
2022-11-16T18:20:41.719Z,61.13
2022-11-16T18:25:40.579Z,56.78
2022-11-16T18:30:39.760Z,52.55
2022-11-16T18:35:40.418Z,49.25
2022-11-16T18:40:40.768Z,59.03
2022-11-16T18:45:40.688Z,56.72
2022-11-16T18:50:40.715Z,61.05
2022-11-16T18:55:39.472Z,63.22
2022-11-16T19:00:38.238Z,74.18
2022-11-16T19:05:37.163Z,71.30
2022-11-16T19:10:39.072Z,74.30
2022-11-16T19:15:37.826Z,77.53
2022-11-16T19:20:37.543Z,73.20
2022-11-16T19:25:39.998Z,74.20
2022-11-16T19:30:40.062Z,74.28
2022-11-16T19:35:41.146Z,74.65
2022-11-16T19:40:42.960Z,76.28
2022-11-16T19:45:53.174Z,77.20
2022-11-16T19:50:53.607Z,66.38
2022-11-16T19:55:57.093Z,61.78
2022-11-16T20:01:02.218Z,65.80
2022-11-16T20:06:08.964Z,68.90
2022-11-16T20:11:17.984Z,73.40
2022-11-16T20:16:19.171Z,65.55
2022-11-16T20:21:22.579Z,65.47
2022-11-16T20:26:23.151Z,58.72
2022-11-16T20:31:24.462Z,57.17
2022-11-16T20:36:25.418Z,55.90
2022-11-16T20:41:28.238Z,52.65
2022-11-16T20:46:29.710Z,50.92
2022-11-16T20:51:31.105Z,47.93
2022-11-16T20:56:31.852Z,49.47
2022-11-16T21:01:34.277Z,51.42
2022-11-16T21:06:35.883Z,48.70
2022-11-16T21:11:58.575Z,47.83
2022-11-16T21:16:57.287Z,44.08
2022-11-16T21:21:55.975Z,50.08
2022-11-16T21:26:56.037Z,50.50
2022-11-16T21:31:54.653Z,51.88
2022-11-16T21:36:53.937Z,45.03
2022-11-16T21:41:52.652Z,43.83
2022-11-16T21:46:53.549Z,43.83
2022-11-16T21:51:53.305Z,41.70
2022-11-16T21:56:52.001Z,41.28
2022-11-16T22:02:00.976Z,40.80
2022-11-16T22:07:17.201Z,46.58
2022-11-16T22:12:16.186Z,52.33
2022-11-16T22:17:16.269Z,55.28
2022-11-16T22:22:15.004Z,52.40
2022-11-16T22:27:13.880Z,47.65
2022-11-16T22:32:12.574Z,35.53
2022-11-16T22:37:12.688Z,30.52
2022-11-16T22:42:13.221Z,30.33
2022-11-16T22:47:12.314Z,31.05
2022-11-16T22:52:12.378Z,30.08
2022-11-16T22:57:11.037Z,29.63
2022-11-16T23:02:09.764Z,28.02
2022-11-16T23:07:08.522Z,24.08
2022-11-16T23:12:26.822Z,24.83
2022-11-16T23:17:25.584Z,24.77
2022-11-16T23:22:41.869Z,24.98
2022-11-16T23:27:44.538Z,20.83
2022-11-16T23:32:43.453Z,22.45
2022-11-16T23:37:52.451Z,22.85
2022-11-16T23:43:10.295Z,21.73
2022-11-16T23:48:10.222Z,20.40
2022-11-16T23:53:10.174Z,19.67
2022-11-16T23:58:13.365Z,23.10
